createdAt,value
2018-01-23T00:02:21.975Z,83.70
2018-01-23T00:04:51.288Z,80.98
2018-01-23T00:07:20.655Z,80.85
2018-01-23T00:09:48.951Z,81.57
2018-01-23T00:12:17.266Z,81.29
2018-01-23T00:14:45.611Z,81.01
2018-01-23T00:17:14.387Z,81.34
2018-01-23T00:19:43.008Z,82.46
2018-01-23T00:22:14.092Z,83.62
2018-01-23T00:24:42.383Z,83.16
2018-01-23T00:27:10.688Z,82.41
2018-01-23T00:29:39.823Z,82.05
2018-01-23T00:32:08.115Z,83.79
2018-01-23T00:34:36.476Z,83.89
2018-01-23T00:37:05.120Z,84.25
2018-01-23T00:39:33.415Z,84.71
2018-01-23T00:44:36.081Z,85.77
2018-01-23T00:47:04.449Z,85.61
2018-01-23T00:49:32.748Z,85.85
2018-01-23T00:52:01.875Z,86.28
2018-01-23T00:54:30.423Z,85.94
2018-01-23T00:56:59.087Z,86.19
2018-01-23T00:59:27.567Z,86.17
2018-01-23T01:01:56.133Z,85.62
2018-01-23T01:04:24.431Z,85.81
2018-01-23T01:06:52.956Z,86.69
2018-01-23T01:09:21.269Z,86.57
2018-01-23T01:11:49.579Z,87.47
2018-01-23T01:14:18.051Z,87.43
2018-01-23T01:16:46.659Z,87.57
2018-01-23T01:19:15.764Z,86.86
2018-01-23T01:21:43.446Z,86.70
2018-01-23T01:24:11.807Z,86.75
2018-01-23T01:26:40.147Z,86.51
2018-01-23T01:29:08.442Z,86.60
2018-01-23T01:31:37.754Z,86.59
2018-01-23T01:34:06.055Z,86.77
2018-01-23T01:36:34.370Z,87.03
2018-01-23T01:39:03.267Z,87.92
2018-01-23T01:41:31.639Z,86.82
2018-01-23T01:43:59.935Z,85.87
2018-01-23T01:46:28.275Z,85.92
2018-01-23T01:48:56.584Z,86.57
2018-01-23T01:51:24.883Z,86.33
2018-01-23T01:53:53.224Z,86.68
2018-01-23T01:56:21.527Z,87.70
2018-01-23T01:58:50.595Z,86.12
2018-01-23T02:01:19.207Z,85.62
2018-01-23T02:03:47.516Z,86.16
2018-01-23T02:06:15.839Z,86.15
2018-01-23T02:08:44.439Z,85.66
2018-01-23T02:11:12.744Z,84.81
2018-01-23T02:13:41.055Z,84.76
2018-01-23T02:16:09.379Z,83.72
2018-01-23T02:18:38.447Z,84.41
2018-01-23T02:21:06.780Z,84.46
2018-01-23T02:23:35.840Z,84.35
2018-01-23T02:26:04.139Z,84.35
2018-01-23T02:28:33.855Z,83.43
2018-01-23T02:31:02.219Z,81.96
2018-01-23T02:33:30.535Z,83.02
2018-01-23T02:35:59.866Z,83.52
2018-01-23T02:38:28.228Z,82.73
2018-01-23T02:40:56.531Z,83.38
2018-01-23T02:43:25.163Z,83.67
2018-01-23T02:45:53.464Z,83.35
2018-01-23T02:48:21.767Z,83.42
2018-01-23T02:50:50.139Z,83.71
2018-01-23T02:53:18.436Z,83.38
2018-01-23T02:55:47.499Z,83.78
2018-01-23T02:58:17.956Z,83.35
2018-01-23T03:00:46.262Z,83.04
2018-01-23T03:03:14.567Z,82.53
2018-01-23T03:05:42.916Z,82.05
2018-01-23T03:08:11.299Z,81.52
2018-01-23T03:10:39.599Z,81.58
2018-01-23T03:13:08.251Z,81.79
2018-01-23T03:15:37.073Z,81.88
2018-01-23T03:18:06.354Z,81.98
2018-01-23T03:20:34.908Z,81.79
2018-01-23T03:23:03.479Z,80.94
2018-01-23T03:25:32.563Z,81.48
2018-01-23T03:28:00.896Z,83.61
2018-01-23T03:30:29.207Z,81.24
2018-01-23T03:32:57.511Z,82.21
2018-01-23T03:35:27.380Z,82.96
2018-01-23T03:37:56.383Z,82.12
2018-01-23T03:40:24.683Z,82.55
2018-01-23T03:42:53.056Z,82.85
2018-01-23T03:45:24.472Z,82.92
2018-01-23T03:47:53.327Z,83.70
2018-01-23T03:50:26.091Z,83.17
2018-01-23T03:52:56.551Z,82.73
2018-01-23T03:55:24.851Z,83.32
2018-01-23T03:57:53.599Z,83.38
2018-01-23T04:00:22.116Z,83.07
2018-01-23T04:02:50.431Z,83.14
2018-01-23T04:05:18.846Z,82.83
2018-01-23T04:07:49.499Z,82.38
2018-01-23T04:10:17.799Z,82.43
2018-01-23T04:12:46.100Z,83.03
2018-01-23T04:15:14.688Z,83.16
2018-01-23T04:17:42.990Z,82.51
2018-01-23T04:20:12.379Z,82.51
2018-01-23T04:22:41.464Z,82.40
2018-01-23T04:25:09.844Z,83.47
2018-01-23T04:27:38.148Z,82.49
2018-01-23T04:30:06.871Z,82.77
2018-01-23T04:32:35.163Z,82.68
2018-01-23T04:35:03.464Z,82.78
2018-01-23T04:37:31.806Z,82.88
2018-01-23T04:40:00.343Z,83.01
2018-01-23T04:42:29.176Z,83.54
2018-01-23T04:44:57.654Z,84.85
2018-01-23T04:47:25.950Z,84.40
2018-01-23T04:49:54.987Z,85.19
2018-01-23T04:52:23.347Z,82.80
2018-01-23T04:54:51.647Z,83.59
2018-01-23T04:57:19.964Z,82.99
2018-01-23T04:59:48.671Z,82.83
2018-01-23T05:02:16.978Z,82.29
2018-01-23T05:04:45.893Z,82.07
2018-01-23T05:07:14.233Z,82.33
2018-01-23T05:09:42.731Z,82.73
2018-01-23T05:12:11.355Z,82.80
2018-01-23T05:14:39.732Z,83.38
2018-01-23T05:17:08.027Z,83.59
2018-01-23T05:19:36.650Z,83.42
2018-01-23T05:22:05.931Z,83.89
2018-01-23T05:24:34.240Z,83.24
2018-01-23T05:27:03.207Z,83.64
2018-01-23T05:29:31.523Z,83.97
2018-01-23T05:31:59.824Z,85.02
2018-01-23T05:34:28.167Z,84.71
2018-01-23T05:36:56.540Z,83.87
2018-01-23T05:39:25.511Z,83.08
2018-01-23T05:41:53.927Z,83.08
2018-01-23T05:44:22.867Z,85.74
2018-01-23T05:46:51.396Z,84.55
2018-01-23T05:49:21.071Z,83.63
2018-01-23T05:51:50.139Z,85.20
2018-01-23T05:54:18.511Z,84.33
2018-01-23T05:56:46.811Z,84.87
2018-01-23T05:59:15.135Z,83.94
2018-01-23T06:01:43.432Z,85.83
2018-01-23T06:04:12.079Z,86.46
2018-01-23T06:06:40.382Z,82.67
2018-01-23T06:09:08.693Z,85.80
2018-01-23T06:11:37.302Z,83.13
2018-01-23T06:14:05.603Z,84.25
2018-01-23T06:16:33.945Z,83.27
2018-01-23T06:19:02.471Z,85.42
2018-01-23T06:21:30.764Z,84.19
2018-01-23T06:23:59.399Z,83.98
2018-01-23T06:26:27.723Z,83.42
2018-01-23T06:28:56.328Z,85.91
2018-01-23T06:31:25.095Z,82.91
2018-01-23T06:33:53.399Z,83.74
2018-01-23T06:36:22.027Z,83.57
2018-01-23T06:38:51.141Z,83.43
2018-01-23T06:41:19.452Z,84.65
2018-01-23T06:43:47.804Z,84.35
2018-01-23T06:46:16.108Z,84.81
2018-01-23T06:48:44.403Z,85.12
2018-01-23T06:51:16.337Z,84.24
2018-01-23T06:53:44.649Z,83.98
2018-01-23T06:56:12.952Z,84.65
2018-01-23T06:58:42.059Z,84.67
2018-01-23T07:01:11.131Z,84.67
2018-01-23T07:03:39.442Z,84.82
2018-01-23T07:06:07.860Z,85.19
2018-01-23T07:08:36.700Z,85.04
2018-01-23T07:11:05.008Z,87.27
2018-01-23T07:13:34.673Z,88.84
2018-01-23T07:16:02.968Z,87.26
2018-01-23T07:18:31.295Z,86.07
2018-01-23T07:21:03.287Z,85.18
2018-01-23T07:23:31.587Z,86.82
2018-01-23T07:25:59.904Z,86.61
2018-01-23T07:28:28.291Z,86.67
2018-01-23T07:30:56.612Z,87.58
2018-01-23T07:33:24.923Z,87.33
2018-01-23T07:35:53.515Z,85.73
2018-01-23T07:38:21.815Z,84.09
2018-01-23T07:40:50.115Z,84.25
2018-01-23T07:43:19.219Z,85.68
2018-01-23T07:45:49.933Z,84.02
2018-01-23T07:48:18.196Z,84.37
2018-01-23T07:50:46.808Z,83.68
2018-01-23T07:53:15.128Z,83.17
2018-01-23T07:55:43.431Z,83.31
2018-01-23T07:58:11.779Z,82.42
2018-01-23T08:00:41.187Z,83.43
2018-01-23T08:03:09.483Z,83.07
2018-01-23T08:05:37.794Z,81.50
2018-01-23T08:08:06.912Z,82.63
2018-01-23T08:10:35.975Z,82.28
2018-01-23T08:13:04.280Z,82.04
2018-01-23T08:15:33.855Z,82.29
2018-01-23T08:18:02.160Z,80.88
2018-01-23T08:20:30.463Z,81.61
2018-01-23T08:22:58.811Z,81.32
2018-01-23T08:25:27.208Z,81.49
2018-01-23T08:27:55.503Z,80.68
2018-01-23T08:30:23.863Z,80.61
2018-01-23T08:32:52.287Z,80.14
2018-01-23T08:35:22.171Z,80.51
2018-01-23T08:37:50.795Z,80.94
2018-01-23T08:40:19.099Z,81.99
2018-01-23T08:42:47.405Z,79.01
2018-01-23T08:45:15.791Z,77.50
2018-01-23T08:47:44.562Z,80.60
2018-01-23T08:50:12.963Z,79.46
2018-01-23T08:52:41.270Z,77.02
2018-01-23T08:55:09.563Z,76.56
2018-01-23T08:57:38.107Z,77.19
2018-01-23T09:00:06.927Z,77.21
2018-01-23T09:02:35.235Z,78.01
2018-01-23T09:05:04.142Z,79.67
2018-01-23T09:07:33.160Z,77.42
2018-01-23T09:10:01.471Z,79.30
2018-01-23T09:12:29.956Z,78.23
2018-01-23T09:14:58.246Z,77.47
2018-01-23T09:17:26.594Z,76.53
2018-01-23T09:19:55.403Z,75.72
2018-01-23T09:22:23.876Z,74.97
2018-01-23T09:24:52.174Z,74.45
2018-01-23T09:27:21.006Z,73.18
2018-01-23T09:29:49.311Z,73.67
2018-01-23T09:32:17.895Z,73.79
2018-01-23T09:34:46.235Z,74.67
2018-01-23T09:37:14.571Z,71.96
2018-01-23T09:39:42.872Z,72.05
2018-01-23T09:42:11.724Z,71.20
2018-01-23T09:44:40.823Z,73.50
2018-01-23T09:47:09.119Z,73.16
2018-01-23T09:49:37.468Z,72.04
2018-01-23T09:52:05.873Z,72.19
2018-01-23T09:54:34.836Z,74.16
2018-01-23T09:57:03.200Z,73.09
2018-01-23T09:59:31.499Z,73.96
2018-01-23T10:01:59.803Z,72.54
2018-01-23T10:04:28.680Z,75.90
2018-01-23T10:06:57.115Z,73.26
2018-01-23T10:09:25.499Z,73.26
2018-01-23T10:11:54.222Z,74.29
2018-01-23T10:14:22.527Z,74.24
2018-01-23T10:16:51.516Z,73.88
2018-01-23T10:19:19.923Z,72.82
2018-01-23T10:21:48.248Z,73.82
2018-01-23T10:24:16.591Z,74.83
2018-01-23T10:26:45.239Z,74.34
2018-01-23T10:29:13.544Z,73.69
2018-01-23T10:31:41.852Z,72.80
2018-01-23T10:34:10.520Z,74.40
2018-01-23T10:36:38.815Z,75.62
2018-01-23T10:39:07.131Z,74.89
2018-01-23T10:41:35.480Z,72.40
2018-01-23T10:44:03.783Z,75.25
2018-01-23T10:46:32.088Z,73.85
2018-01-23T10:49:00.441Z,73.80
2018-01-23T10:51:29.516Z,74.38
2018-01-23T10:53:58.435Z,73.44
2018-01-23T10:56:27.052Z,71.06
2018-01-23T10:58:55.671Z,74.90
2018-01-23T11:01:29.419Z,71.60
2018-01-23T11:03:57.724Z,69.23
2018-01-23T11:06:26.331Z,71.03
2018-01-23T11:08:54.655Z,67.90
2018-01-23T11:11:23.011Z,68.34
2018-01-23T11:13:51.329Z,68.27
2018-01-23T11:16:19.676Z,68.28
2018-01-23T11:18:47.984Z,69.30
2018-01-23T11:21:16.275Z,69.98
2018-01-23T11:23:45.123Z,68.90
2018-01-23T11:26:13.431Z,68.43
2018-01-23T11:28:41.736Z,70.97
2018-01-23T11:31:10.087Z,68.09
2018-01-23T11:33:38.399Z,67.58
2018-01-23T11:36:06.704Z,66.56
2018-01-23T11:38:36.104Z,65.52
2018-01-23T11:41:04.561Z,64.97
2018-01-23T11:43:32.867Z,65.59
2018-01-23T11:46:01.982Z,63.95
2018-01-23T11:48:30.288Z,63.80
2018-01-23T11:50:58.983Z,64.21
2018-01-23T11:53:27.847Z,62.87
2018-01-23T11:55:56.151Z,63.98
2018-01-23T11:58:24.447Z,66.29
2018-01-23T12:00:52.808Z,68.70
2018-01-23T12:03:21.112Z,67.76
2018-01-23T12:05:50.186Z,69.17
2018-01-23T12:08:19.083Z,68.09
2018-01-23T12:10:47.383Z,66.98
2018-01-23T12:13:15.685Z,65.25
2018-01-23T12:15:44.031Z,65.00
2018-01-23T12:18:13.335Z,66.20
2018-01-23T12:20:41.639Z,64.56
2018-01-23T12:23:10.223Z,66.52
2018-01-23T12:25:38.860Z,64.58
2018-01-23T12:28:07.598Z,65.44
2018-01-23T12:30:36.643Z,63.36
2018-01-23T12:33:04.943Z,64.81
2018-01-23T12:35:33.495Z,64.19
2018-01-23T12:38:02.115Z,63.70
2018-01-23T12:40:30.445Z,63.65
2018-01-23T12:42:58.751Z,61.64
2018-01-23T12:45:27.120Z,60.68
2018-01-23T12:47:55.443Z,60.58
2018-01-23T12:50:23.768Z,59.87
2018-01-23T12:52:52.367Z,59.58
2018-01-23T12:55:20.699Z,59.77
2018-01-23T12:57:49.004Z,59.65
2018-01-23T13:00:17.408Z,61.43
2018-01-23T13:02:45.689Z,61.40
2018-01-23T13:05:14.011Z,61.09
2018-01-23T13:07:42.418Z,61.37
2018-01-23T13:10:10.715Z,62.43
2018-01-23T13:12:39.016Z,62.77
2018-01-23T13:15:07.356Z,60.80
2018-01-23T13:17:35.670Z,62.05
2018-01-23T13:20:03.979Z,62.22
2018-01-23T13:22:32.333Z,63.11
2018-01-23T13:25:00.639Z,64.48
2018-01-23T13:27:28.939Z,64.76
2018-01-23T13:29:57.659Z,65.40
2018-01-23T13:32:26.730Z,65.58
2018-01-23T13:34:55.023Z,66.36
2018-01-23T13:37:24.121Z,68.30
2018-01-23T13:39:52.452Z,68.97
2018-01-23T13:42:20.771Z,68.01
2018-01-23T13:44:49.127Z,68.04
2018-01-23T13:47:17.427Z,68.38
2018-01-23T13:49:45.727Z,67.22
2018-01-23T13:52:14.072Z,68.78
2018-01-23T13:54:42.381Z,69.74
2018-01-23T13:57:10.688Z,68.25
2018-01-23T13:59:39.367Z,67.57
2018-01-23T14:02:07.675Z,67.91
2018-01-23T14:04:35.980Z,67.67
2018-01-23T14:07:04.440Z,66.66
2018-01-23T14:09:32.760Z,66.40
2018-01-23T14:12:01.182Z,67.12
2018-01-23T14:14:29.528Z,65.88
2018-01-23T14:16:58.145Z,66.88
2018-01-23T14:19:27.114Z,66.87
2018-01-23T14:21:55.644Z,66.55
2018-01-23T14:24:24.613Z,67.09
2018-01-23T14:26:53.055Z,67.37
2018-01-23T14:29:22.971Z,66.40
2018-01-23T14:31:51.267Z,66.35
2018-01-23T14:34:20.523Z,66.11
2018-01-23T14:36:49.424Z,64.92
2018-01-23T14:39:18.039Z,65.23
2018-01-23T14:41:46.768Z,66.80
2018-01-23T14:44:15.412Z,67.07
2018-01-23T14:46:44.695Z,67.80
2018-01-23T14:49:13.015Z,67.69
2018-01-23T14:51:41.831Z,66.28
2018-01-23T14:54:10.893Z,66.46
2018-01-23T14:56:39.702Z,66.75
2018-01-23T14:59:08.660Z,67.18
2018-01-23T15:01:37.484Z,66.91
2018-01-23T15:04:06.296Z,67.49
2018-01-23T15:06:34.639Z,66.59
2018-01-23T15:09:02.955Z,66.59
2018-01-23T15:11:31.262Z,66.94
2018-01-23T15:13:59.613Z,66.90
2018-01-23T15:16:28.671Z,67.83
2018-01-23T15:18:56.975Z,68.14
2018-01-23T15:21:26.561Z,69.42
2018-01-23T15:23:54.869Z,69.73
2018-01-23T15:26:23.173Z,69.78
2018-01-23T15:28:52.473Z,70.11
2018-01-23T15:31:21.136Z,70.18
2018-01-23T15:33:49.448Z,70.39
2018-01-23T15:36:18.122Z,70.85
2018-01-23T15:38:46.707Z,71.10
2018-01-23T15:41:15.008Z,71.67
2018-01-23T15:43:43.456Z,71.11
2018-01-23T15:46:11.795Z,71.13
2018-01-23T15:48:40.092Z,71.65
2018-01-23T15:51:08.443Z,71.96
2018-01-23T15:53:36.748Z,72.24
2018-01-23T15:56:05.051Z,72.55
2018-01-23T15:58:33.989Z,72.63
2018-01-23T16:01:02.312Z,72.53
2018-01-23T16:03:31.403Z,72.72
2018-01-23T16:05:59.692Z,72.50
2018-01-23T16:08:28.008Z,73.11
2018-01-23T16:10:56.328Z,72.74
2018-01-23T16:13:24.627Z,72.81
2018-01-23T16:15:53.546Z,72.73
2018-01-23T16:18:21.923Z,72.41
2018-01-23T16:20:50.934Z,71.43
2018-01-23T16:23:19.323Z,71.99
2018-01-23T16:25:47.623Z,71.52
2018-01-23T16:28:16.155Z,71.16
2018-01-23T16:30:45.232Z,71.59
2018-01-23T16:33:14.894Z,71.89
2018-01-23T16:35:43.891Z,71.65
2018-01-23T16:38:12.266Z,71.67
2018-01-23T16:40:41.139Z,71.56
2018-01-23T16:43:09.681Z,71.36
2018-01-23T16:45:37.979Z,72.04
2018-01-23T16:48:06.655Z,72.60
2018-01-23T16:50:35.317Z,72.26
2018-01-23T16:53:03.683Z,71.86
2018-01-23T16:55:32.589Z,71.42
2018-01-23T16:58:01.475Z,72.24
2018-01-23T17:00:29.911Z,72.10
2018-01-23T17:03:00.076Z,71.95
2018-01-23T17:05:28.699Z,73.09
2018-01-23T17:07:56.997Z,72.43
2018-01-23T17:10:25.303Z,72.18
2018-01-23T17:12:53.664Z,72.33
2018-01-23T17:15:22.059Z,72.67
2018-01-23T17:17:50.395Z,72.11
2018-01-23T17:20:18.740Z,72.75
2018-01-23T17:22:47.035Z,72.97
2018-01-23T17:25:15.964Z,73.11
2018-01-23T17:27:44.317Z,72.95
2018-01-23T17:30:12.644Z,73.14
2018-01-23T17:32:40.948Z,73.44
2018-01-23T17:35:09.277Z,73.60
2018-01-23T17:37:37.587Z,73.41
2018-01-23T17:40:05.892Z,73.82
2018-01-23T17:42:34.578Z,75.68
2018-01-23T17:45:02.957Z,74.46
2018-01-23T17:47:31.391Z,74.55
2018-01-23T17:50:00.567Z,75.57
2018-01-23T17:52:29.457Z,75.66
2018-01-23T17:54:58.131Z,76.14
2018-01-23T17:57:26.455Z,76.88
2018-01-23T17:59:55.832Z,76.94
2018-01-23T18:02:24.261Z,77.54
2018-01-23T18:04:52.761Z,77.81
2018-01-23T18:07:21.165Z,78.29
2018-01-23T18:09:49.472Z,78.97
2018-01-23T18:12:17.776Z,79.65
2018-01-23T18:14:46.504Z,80.25
2018-01-23T18:17:14.858Z,81.12
2018-01-23T18:19:43.164Z,82.17
2018-01-23T18:22:11.866Z,83.08
2018-01-23T18:24:40.250Z,84.00
2018-01-23T18:27:09.366Z,84.61
2018-01-23T18:29:38.088Z,85.09
2018-01-23T18:32:06.447Z,85.19
2018-01-23T18:34:34.818Z,84.87
2018-01-23T18:37:03.430Z,85.10
2018-01-23T18:39:31.803Z,85.50
2018-01-23T18:42:00.124Z,85.96
2018-01-23T18:44:29.140Z,86.78
2018-01-23T18:46:57.444Z,87.72
2018-01-23T18:49:25.807Z,87.89
2018-01-23T18:51:54.198Z,87.87
2018-01-23T18:54:22.578Z,87.90
2018-01-23T18:56:51.726Z,88.37
2018-01-23T18:59:21.227Z,88.38
2018-01-23T19:01:50.335Z,88.20
2018-01-23T19:04:19.445Z,88.63
2018-01-23T19:06:47.780Z,88.75
2018-01-23T19:09:16.672Z,89.87
2018-01-23T19:11:44.971Z,89.96
2018-01-23T19:14:13.332Z,89.78
2018-01-23T19:16:42.366Z,89.92
2018-01-23T19:19:10.667Z,89.94
2018-01-23T19:21:39.080Z,90.66
2018-01-23T19:24:07.426Z,91.09
2018-01-23T19:26:36.632Z,91.79
2018-01-23T19:29:04.999Z,91.80
2018-01-23T19:31:33.307Z,91.88
2018-01-23T19:34:01.660Z,92.35
2018-01-23T19:36:30.025Z,92.37
2018-01-23T19:38:58.649Z,91.50
2018-01-23T19:41:27.074Z,91.38
2018-01-23T19:43:55.422Z,91.58
2018-01-23T19:46:23.818Z,91.85
2018-01-23T19:48:52.987Z,92.01
2018-01-23T19:51:21.294Z,92.71
2018-01-23T19:53:49.851Z,92.53
2018-01-23T19:56:18.767Z,92.58
2018-01-23T19:58:47.115Z,91.75
2018-01-23T20:01:15.420Z,91.82
2018-01-23T20:03:44.598Z,91.67
2018-01-23T20:06:13.854Z,91.83
2018-01-23T20:08:42.667Z,91.54
2018-01-23T20:11:11.073Z,90.92
2018-01-23T20:13:40.103Z,90.70
2018-01-23T20:16:08.778Z,91.05
2018-01-23T20:18:37.134Z,91.39
2018-01-23T20:21:07.471Z,92.36
2018-01-23T20:23:36.490Z,91.92
2018-01-23T20:26:04.880Z,91.21
2018-01-23T20:28:33.239Z,90.05
2018-01-23T20:31:01.639Z,87.64
2018-01-23T20:33:31.443Z,86.51
2018-01-23T20:35:59.795Z,87.33
2018-01-23T20:38:28.230Z,87.92
2018-01-23T20:40:56.551Z,86.47
2018-01-23T20:43:25.246Z,85.96
2018-01-23T20:45:53.604Z,85.62
2018-01-23T20:48:22.102Z,85.31
2018-01-23T20:50:50.788Z,87.17
2018-01-23T20:53:19.176Z,87.21
2018-01-23T20:55:48.268Z,88.56
2018-01-23T20:58:16.652Z,88.64
2018-01-23T21:00:45.715Z,88.44
2018-01-23T21:03:14.311Z,88.12
2018-01-23T21:05:42.773Z,84.15
2018-01-23T21:08:11.103Z,86.95
2018-01-23T21:10:39.727Z,86.84
2018-01-23T21:13:09.107Z,88.07
2018-01-23T21:15:37.455Z,86.24
2018-01-23T21:18:06.043Z,85.55
2018-01-23T21:20:34.657Z,85.14
2018-01-23T21:23:03.003Z,85.37
2018-01-23T21:25:31.379Z,87.14
2018-01-23T21:27:59.780Z,88.17
2018-01-23T21:30:28.151Z,88.13
2018-01-23T21:32:56.475Z,86.26
2018-01-23T21:35:24.899Z,86.84
2018-01-23T21:37:53.267Z,87.59
2018-01-23T21:40:21.615Z,87.28
2018-01-23T21:42:50.282Z,86.29
2018-01-23T21:45:18.638Z,88.04
2018-01-23T21:47:47.092Z,87.81
2018-01-23T21:50:16.990Z,86.85
2018-01-23T21:52:45.436Z,84.64
2018-01-23T21:55:14.571Z,81.98
2018-01-23T21:57:43.165Z,80.80
2018-01-23T22:00:11.486Z,82.08
2018-01-23T22:02:39.834Z,83.12
2018-01-23T22:05:08.802Z,81.97
2018-01-23T22:07:37.311Z,82.67
2018-01-23T22:10:05.658Z,81.60
2018-01-23T22:12:35.067Z,82.31
2018-01-23T22:15:04.227Z,82.51
2018-01-23T22:17:32.554Z,82.38
2018-01-23T22:20:01.096Z,81.48
2018-01-23T22:22:29.948Z,80.28
2018-01-23T22:24:58.255Z,81.13
2018-01-23T22:27:26.635Z,81.58
2018-01-23T22:29:54.956Z,81.85
2018-01-23T22:32:23.292Z,81.64
2018-01-23T22:34:51.682Z,80.85
2018-01-23T22:37:20.060Z,82.23
2018-01-23T22:39:48.380Z,78.97
2018-01-23T22:42:17.120Z,77.93
2018-01-23T22:44:45.471Z,77.74
2018-01-23T22:47:13.809Z,78.71
2018-01-23T22:49:42.149Z,77.21
2018-01-23T22:52:10.483Z,77.07
2018-01-23T22:54:38.838Z,75.97
2018-01-23T22:57:07.962Z,77.56
2018-01-23T22:59:36.300Z,76.87
2018-01-23T23:02:04.714Z,79.39
2018-01-23T23:04:33.015Z,79.05
2018-01-23T23:07:01.727Z,81.10
2018-01-23T23:09:30.207Z,80.33
2018-01-23T23:11:58.563Z,80.36
2018-01-23T23:14:27.630Z,79.19
2018-01-23T23:16:56.117Z,80.44
2018-01-23T23:19:24.419Z,78.06
2018-01-23T23:21:52.723Z,78.86
2018-01-23T23:24:22.476Z,77.38
2018-01-23T23:26:50.776Z,77.61
2018-01-23T23:29:19.075Z,79.83
2018-01-23T23:31:47.416Z,80.70
2018-01-23T23:34:15.717Z,80.79
2018-01-23T23:36:44.015Z,77.16
2018-01-23T23:39:13.776Z,77.38
2018-01-23T23:41:42.096Z,78.25
2018-01-23T23:44:10.411Z,78.39
2018-01-23T23:46:39.018Z,79.75
2018-01-23T23:49:07.332Z,80.20
2018-01-23T23:51:35.636Z,76.97
2018-01-23T23:54:04.181Z,76.08
2018-01-23T23:56:32.475Z,74.50
2018-01-23T23:59:00.772Z,74.33
